sensor_id;sensor_type;location;lat;lon;timestamp;temperature;humidity
6098;DHT22;3077;50.922;6.584;2023-08-30T00:00:10;16.80;99.90
6098;DHT22;3077;50.922;6.584;2023-08-30T00:02:36;16.70;99.90
6098;DHT22;3077;50.922;6.584;2023-08-30T00:05:03;16.80;99.90
6098;DHT22;3077;50.922;6.584;2023-08-30T00:07:29;16.80;99.90
6098;DHT22;3077;50.922;6.584;2023-08-30T00:09:55;16.80;99.90
6098;DHT22;3077;50.922;6.584;2023-08-30T00:12:21;16.90;99.90
6098;DHT22;3077;50.922;6.584;2023-08-30T00:14:47;16.90;99.90
6098;DHT22;3077;50.922;6.584;2023-08-30T00:17:13;16.90;99.90
6098;DHT22;3077;50.922;6.584;2023-08-30T00:19:40;17.00;99.90
6098;DHT22;3077;50.922;6.584;2023-08-30T00:22:05;16.90;99.90
6098;DHT22;3077;50.922;6.584;2023-08-30T00:24:35;17.00;99.90
6098;DHT22;3077;50.922;6.584;2023-08-30T00:27:01;16.90;99.90
6098;DHT22;3077;50.922;6.584;2023-08-30T00:29:28;16.90;99.90
6098;DHT22;3077;50.922;6.584;2023-08-30T00:31:53;16.90;99.90
6098;DHT22;3077;50.922;6.584;2023-08-30T00:34:19;16.80;99.90
6098;DHT22;3077;50.922;6.584;2023-08-30T00:36:45;16.70;99.90
6098;DHT22;3077;50.922;6.584;2023-08-30T00:39:10;16.60;99.90
6098;DHT22;3077;50.922;6.584;2023-08-30T00:41:36;16.60;99.90
6098;DHT22;3077;50.922;6.584;2023-08-30T00:44:02;16.50;99.90
6098;DHT22;3077;50.922;6.584;2023-08-30T00:46:28;16.70;99.90
6098;DHT22;3077;50.922;6.584;2023-08-30T00:48:54;16.40;99.90
6098;DHT22;3077;50.922;6.584;2023-08-30T00:51:20;16.30;99.90
6098;DHT22;3077;50.922;6.584;2023-08-30T00:53:46;16.30;99.90
6098;DHT22;3077;50.922;6.584;2023-08-30T00:56:12;16.00;99.90
6098;DHT22;3077;50.922;6.584;2023-08-30T00:58:38;16.30;99.90
6098;DHT22;3077;50.922;6.584;2023-08-30T01:01:04;16.30;99.90
6098;DHT22;3077;50.922;6.584;2023-08-30T01:03:36;16.20;99.90
6098;DHT22;3077;50.922;6.584;2023-08-30T01:06:03;16.20;99.90
6098;DHT22;3077;50.922;6.584;2023-08-30T01:08:28;16.10;99.90
6098;DHT22;3077;50.922;6.584;2023-08-30T01:13:35;16.00;99.90
6098;DHT22;3077;50.922;6.584;2023-08-30T01:16:02;16.00;99.90
6098;DHT22;3077;50.922;6.584;2023-08-30T01:18:32;16.00;99.90
6098;DHT22;3077;50.922;6.584;2023-08-30T01:21:01;15.80;99.90
6098;DHT22;3077;50.922;6.584;2023-08-30T01:23:58;15.80;99.90
6098;DHT22;3077;50.922;6.584;2023-08-30T01:26:45;15.70;99.90
6098;DHT22;3077;50.922;6.584;2023-08-30T01:29:14;15.70;99.90
6098;DHT22;3077;50.922;6.584;2023-08-30T01:31:42;15.60;99.90
6098;DHT22;3077;50.922;6.584;2023-08-30T01:34:09;15.60;99.90
6098;DHT22;3077;50.922;6.584;2023-08-30T01:36:36;15.50;99.90
6098;DHT22;3077;50.922;6.584;2023-08-30T01:39:02;15.40;99.90
6098;DHT22;3077;50.922;6.584;2023-08-30T01:41:30;15.40;99.90
6098;DHT22;3077;50.922;6.584;2023-08-30T01:43:56;15.30;99.90
6098;DHT22;3077;50.922;6.584;2023-08-30T01:46:24;15.20;99.90
6098;DHT22;3077;50.922;6.584;2023-08-30T01:48:51;15.20;99.90
6098;DHT22;3077;50.922;6.584;2023-08-30T01:51:17;15.10;99.90
6098;DHT22;3077;50.922;6.584;2023-08-30T01:53:44;15.00;99.90
6098;DHT22;3077;50.922;6.584;2023-08-30T01:56:10;15.00;99.90
6098;DHT22;3077;50.922;6.584;2023-08-30T01:58:36;15.00;99.90
6098;DHT22;3077;50.922;6.584;2023-08-30T02:01:02;15.20;99.90
6098;DHT22;3077;50.922;6.584;2023-08-30T02:03:27;14.90;99.90
6098;DHT22;3077;50.922;6.584;2023-08-30T02:06:11;15.00;99.90
6098;DHT22;3077;50.922;6.584;2023-08-30T02:08:41;15.00;99.90
6098;DHT22;3077;50.922;6.584;2023-08-30T02:11:17;14.90;99.90
6098;DHT22;3077;50.922;6.584;2023-08-30T02:13:44;14.80;99.90
6098;DHT22;3077;50.922;6.584;2023-08-30T02:16:13;14.70;99.90
6098;DHT22;3077;50.922;6.584;2023-08-30T02:18:39;14.70;99.90
6098;DHT22;3077;50.922;6.584;2023-08-30T02:21:05;14.70;99.90
6098;DHT22;3077;50.922;6.584;2023-08-30T02:23:30;14.70;99.90
6098;DHT22;3077;50.922;6.584;2023-08-30T02:25:56;14.70;99.90
6098;DHT22;3077;50.922;6.584;2023-08-30T02:28:22;14.70;99.90
6098;DHT22;3077;50.922;6.584;2023-08-30T02:30:47;14.70;99.90
6098;DHT22;3077;50.922;6.584;2023-08-30T02:33:13;14.60;99.90
6098;DHT22;3077;50.922;6.584;2023-08-30T02:35:39;14.90;99.90
6098;DHT22;3077;50.922;6.584;2023-08-30T02:38:04;14.60;99.90
6098;DHT22;3077;50.922;6.584;2023-08-30T02:40:31;14.70;99.90
6098;DHT22;3077;50.922;6.584;2023-08-30T02:42:57;14.60;99.90
6098;DHT22;3077;50.922;6.584;2023-08-30T02:45:22;14.60;99.90
6098;DHT22;3077;50.922;6.584;2023-08-30T02:47:48;14.60;99.90
6098;DHT22;3077;50.922;6.584;2023-08-30T02:50:14;14.50;99.90
6098;DHT22;3077;50.922;6.584;2023-08-30T02:52:39;14.40;99.90
6098;DHT22;3077;50.922;6.584;2023-08-30T02:55:05;14.40;99.90
6098;DHT22;3077;50.922;6.584;2023-08-30T02:57:31;14.40;99.90
6098;DHT22;3077;50.922;6.584;2023-08-30T02:59:57;14.30;99.90
6098;DHT22;3077;50.922;6.584;2023-08-30T03:04:49;14.50;99.90
6098;DHT22;3077;50.922;6.584;2023-08-30T03:09:40;14.50;99.90
6098;DHT22;3077;50.922;6.584;2023-08-30T03:12:06;14.50;99.90
6098;DHT22;3077;50.922;6.584;2023-08-30T03:14:32;14.50;99.90
6098;DHT22;3077;50.922;6.584;2023-08-30T03:16:58;14.50;99.90
6098;DHT22;3077;50.922;6.584;2023-08-30T03:19:23;14.50;99.90
6098;DHT22;3077;50.922;6.584;2023-08-30T03:21:49;14.50;99.90
6098;DHT22;3077;50.922;6.584;2023-08-30T03:24:14;14.40;99.90
6098;DHT22;3077;50.922;6.584;2023-08-30T03:26:43;14.40;99.90
6098;DHT22;3077;50.922;6.584;2023-08-30T03:29:08;14.90;99.90
6098;DHT22;3077;50.922;6.584;2023-08-30T03:31:34;14.50;99.90
6098;DHT22;3077;50.922;6.584;2023-08-30T03:34:00;14.40;99.90
6098;DHT22;3077;50.922;6.584;2023-08-30T03:36:25;14.20;99.90
6098;DHT22;3077;50.922;6.584;2023-08-30T03:38:51;14.10;99.90
6098;DHT22;3077;50.922;6.584;2023-08-30T03:41:18;14.10;99.90
6098;DHT22;3077;50.922;6.584;2023-08-30T03:43:43;14.10;99.90
6098;DHT22;3077;50.922;6.584;2023-08-30T03:46:09;14.20;99.90
6098;DHT22;3077;50.922;6.584;2023-08-30T03:48:37;14.20;99.90
6098;DHT22;3077;50.922;6.584;2023-08-30T03:51:02;14.20;99.90
6098;DHT22;3077;50.922;6.584;2023-08-30T03:53:28;14.30;99.90
6098;DHT22;3077;50.922;6.584;2023-08-30T03:55:55;14.30;99.90
6098;DHT22;3077;50.922;6.584;2023-08-30T03:58:21;14.30;99.90
6098;DHT22;3077;50.922;6.584;2023-08-30T04:00:46;14.30;99.90
6098;DHT22;3077;50.922;6.584;2023-08-30T04:03:14;14.30;99.90
6098;DHT22;3077;50.922;6.584;2023-08-30T04:05:39;14.40;99.90
6098;DHT22;3077;50.922;6.584;2023-08-30T04:08:06;14.40;99.90
6098;DHT22;3077;50.922;6.584;2023-08-30T04:10:36;14.50;99.90
6098;DHT22;3077;50.922;6.584;2023-08-30T04:13:02;14.50;99.90
6098;DHT22;3077;50.922;6.584;2023-08-30T04:15:28;14.50;99.90
6098;DHT22;3077;50.922;6.584;2023-08-30T04:17:53;14.50;99.90
6098;DHT22;3077;50.922;6.584;2023-08-30T04:20:19;14.60;99.90
6098;DHT22;3077;50.922;6.584;2023-08-30T04:22:45;14.60;99.90
6098;DHT22;3077;50.922;6.584;2023-08-30T04:25:10;14.60;99.90
6098;DHT22;3077;50.922;6.584;2023-08-30T04:27:36;14.60;99.90
6098;DHT22;3077;50.922;6.584;2023-08-30T04:30:02;14.60;99.90
6098;DHT22;3077;50.922;6.584;2023-08-30T04:32:28;14.60;99.90
6098;DHT22;3077;50.922;6.584;2023-08-30T04:34:54;14.60;99.90
6098;DHT22;3077;50.922;6.584;2023-08-30T04:37:19;14.70;99.90
6098;DHT22;3077;50.922;6.584;2023-08-30T04:39:48;14.70;99.90
6098;DHT22;3077;50.922;6.584;2023-08-30T04:42:14;14.70;99.90
6098;DHT22;3077;50.922;6.584;2023-08-30T04:44:40;14.70;99.90
6098;DHT22;3077;50.922;6.584;2023-08-30T04:47:06;14.70;99.90
6098;DHT22;3077;50.922;6.584;2023-08-30T04:49:31;14.70;99.90
6098;DHT22;3077;50.922;6.584;2023-08-30T04:51:57;14.80;99.90
6098;DHT22;3077;50.922;6.584;2023-08-30T04:54:22;14.80;99.90
6098;DHT22;3077;50.922;6.584;2023-08-30T04:56:48;14.80;99.90
6098;DHT22;3077;50.922;6.584;2023-08-30T04:59:14;14.90;99.90
6098;DHT22;3077;50.922;6.584;2023-08-30T05:01:40;14.80;99.90
6098;DHT22;3077;50.922;6.584;2023-08-30T05:04:10;14.80;99.90
6098;DHT22;3077;50.922;6.584;2023-08-30T05:06:36;14.80;99.90
6098;DHT22;3077;50.922;6.584;2023-08-30T05:09:02;14.80;99.90
6098;DHT22;3077;50.922;6.584;2023-08-30T05:11:28;14.80;99.90
6098;DHT22;3077;50.922;6.584;2023-08-30T05:13:54;14.90;99.90
6098;DHT22;3077;50.922;6.584;2023-08-30T05:16:20;14.90;99.90
6098;DHT22;3077;50.922;6.584;2023-08-30T05:18:46;14.90;99.90
6098;DHT22;3077;50.922;6.584;2023-08-30T05:21:13;14.90;99.90
6098;DHT22;3077;50.922;6.584;2023-08-30T05:23:39;14.90;99.90
6098;DHT22;3077;50.922;6.584;2023-08-30T05:26:08;14.90;99.90
6098;DHT22;3077;50.922;6.584;2023-08-30T05:28:34;14.90;99.90
6098;DHT22;3077;50.922;6.584;2023-08-30T05:30:59;14.90;99.90
6098;DHT22;3077;50.922;6.584;2023-08-30T05:33:25;14.90;99.90
6098;DHT22;3077;50.922;6.584;2023-08-30T05:35:51;15.00;99.90
6098;DHT22;3077;50.922;6.584;2023-08-30T05:38:17;15.00;99.90
6098;DHT22;3077;50.922;6.584;2023-08-30T05:40:42;15.00;99.90
6098;DHT22;3077;50.922;6.584;2023-08-30T05:43:10;14.90;99.90
6098;DHT22;3077;50.922;6.584;2023-08-30T05:45:36;14.90;99.90
6098;DHT22;3077;50.922;6.584;2023-08-30T05:48:02;14.90;99.90
6098;DHT22;3077;50.922;6.584;2023-08-30T05:50:28;14.90;99.90
6098;DHT22;3077;50.922;6.584;2023-08-30T05:52:54;14.90;99.90
6098;DHT22;3077;50.922;6.584;2023-08-30T05:55:19;14.90;99.90
6098;DHT22;3077;50.922;6.584;2023-08-30T05:57:45;14.90;99.90
6098;DHT22;3077;50.922;6.584;2023-08-30T06:00:12;15.00;99.90
6098;DHT22;3077;50.922;6.584;2023-08-30T06:02:39;15.00;99.90
6098;DHT22;3077;50.922;6.584;2023-08-30T06:05:04;15.00;99.90
6098;DHT22;3077;50.922;6.584;2023-08-30T06:07:30;15.10;99.90
6098;DHT22;3077;50.922;6.584;2023-08-30T06:09:56;15.10;99.90
6098;DHT22;3077;50.922;6.584;2023-08-30T06:12:21;15.20;99.90
6098;DHT22;3077;50.922;6.584;2023-08-30T06:14:47;15.20;99.90
6098;DHT22;3077;50.922;6.584;2023-08-30T06:17:18;15.40;99.90
6098;DHT22;3077;50.922;6.584;2023-08-30T06:19:45;15.40;99.90
6098;DHT22;3077;50.922;6.584;2023-08-30T06:22:12;15.50;99.90
6098;DHT22;3077;50.922;6.584;2023-08-30T06:24:37;15.50;99.90
6098;DHT22;3077;50.922;6.584;2023-08-30T06:27:03;15.60;99.90
6098;DHT22;3077;50.922;6.584;2023-08-30T06:29:29;15.60;99.90
6098;DHT22;3077;50.922;6.584;2023-08-30T06:31:55;15.70;99.90
6098;DHT22;3077;50.922;6.584;2023-08-30T06:34:20;15.70;99.90
6098;DHT22;3077;50.922;6.584;2023-08-30T06:39:12;15.70;99.90
6098;DHT22;3077;50.922;6.584;2023-08-30T06:41:37;15.80;99.90
6098;DHT22;3077;50.922;6.584;2023-08-30T06:44:03;15.90;99.90
6098;DHT22;3077;50.922;6.584;2023-08-30T06:46:29;15.90;99.90
6098;DHT22;3077;50.922;6.584;2023-08-30T06:48:55;16.00;99.90
6098;DHT22;3077;50.922;6.584;2023-08-30T06:51:20;16.00;99.90
6098;DHT22;3077;50.922;6.584;2023-08-30T06:53:46;16.00;99.90
6098;DHT22;3077;50.922;6.584;2023-08-30T06:56:12;15.90;99.90
6098;DHT22;3077;50.922;6.584;2023-08-30T06:58:38;16.00;99.90
6098;DHT22;3077;50.922;6.584;2023-08-30T07:01:04;16.10;99.90
6098;DHT22;3077;50.922;6.584;2023-08-30T07:03:30;16.20;99.90
6098;DHT22;3077;50.922;6.584;2023-08-30T07:05:55;16.30;99.90
6098;DHT22;3077;50.922;6.584;2023-08-30T07:08:21;16.40;99.90
6098;DHT22;3077;50.922;6.584;2023-08-30T07:10:47;16.50;99.90
6098;DHT22;3077;50.922;6.584;2023-08-30T07:13:12;16.60;99.90
6098;DHT22;3077;50.922;6.584;2023-08-30T07:15:39;16.80;99.90
6098;DHT22;3077;50.922;6.584;2023-08-30T07:18:06;16.80;99.90
6098;DHT22;3077;50.922;6.584;2023-08-30T07:20:32;16.90;99.90
6098;DHT22;3077;50.922;6.584;2023-08-30T07:22:57;17.00;99.90
6098;DHT22;3077;50.922;6.584;2023-08-30T07:25:23;17.00;99.90
6098;DHT22;3077;50.922;6.584;2023-08-30T07:27:49;17.20;99.90
6098;DHT22;3077;50.922;6.584;2023-08-30T07:30:15;17.20;99.90
6098;DHT22;3077;50.922;6.584;2023-08-30T07:32:41;17.30;99.90
6098;DHT22;3077;50.922;6.584;2023-08-30T07:35:07;17.50;99.90
6098;DHT22;3077;50.922;6.584;2023-08-30T07:37:33;17.70;99.90
6098;DHT22;3077;50.922;6.584;2023-08-30T07:39:59;17.90;99.90
6098;DHT22;3077;50.922;6.584;2023-08-30T07:42:25;18.00;99.90
6098;DHT22;3077;50.922;6.584;2023-08-30T07:44:50;18.10;99.90
6098;DHT22;3077;50.922;6.584;2023-08-30T07:47:16;18.30;99.90
6098;DHT22;3077;50.922;6.584;2023-08-30T07:49:42;18.40;99.90
6098;DHT22;3077;50.922;6.584;2023-08-30T07:52:07;18.60;99.90
6098;DHT22;3077;50.922;6.584;2023-08-30T07:54:37;18.80;99.90
6098;DHT22;3077;50.922;6.584;2023-08-30T07:57:03;18.80;99.90
6098;DHT22;3077;50.922;6.584;2023-08-30T07:59:29;19.00;99.90
6098;DHT22;3077;50.922;6.584;2023-08-30T08:01:55;19.00;99.90
6098;DHT22;3077;50.922;6.584;2023-08-30T08:04:21;19.20;99.90
6098;DHT22;3077;50.922;6.584;2023-08-30T08:06:47;19.30;99.90
6098;DHT22;3077;50.922;6.584;2023-08-30T08:09:13;19.50;99.90
6098;DHT22;3077;50.922;6.584;2023-08-30T08:11:40;19.60;99.90
6098;DHT22;3077;50.922;6.584;2023-08-30T08:14:09;19.70;99.90
6098;DHT22;3077;50.922;6.584;2023-08-30T08:16:35;19.80;99.90
6098;DHT22;3077;50.922;6.584;2023-08-30T08:19:01;19.90;99.90
6098;DHT22;3077;50.922;6.584;2023-08-30T08:21:27;19.80;99.90
6098;DHT22;3077;50.922;6.584;2023-08-30T08:23:52;19.90;99.90
6098;DHT22;3077;50.922;6.584;2023-08-30T08:26:18;20.00;99.90
6098;DHT22;3077;50.922;6.584;2023-08-30T08:28:44;19.90;99.90
6098;DHT22;3077;50.922;6.584;2023-08-30T08:31:10;19.90;99.90
6098;DHT22;3077;50.922;6.584;2023-08-30T08:33:36;19.90;99.90
6098;DHT22;3077;50.922;6.584;2023-08-30T08:36:01;19.80;99.90
6098;DHT22;3077;50.922;6.584;2023-08-30T08:38:27;19.70;99.90
6098;DHT22;3077;50.922;6.584;2023-08-30T08:41:02;19.60;99.90
6098;DHT22;3077;50.922;6.584;2023-08-30T08:43:29;19.50;99.90
6098;DHT22;3077;50.922;6.584;2023-08-30T08:45:59;19.50;99.90
6098;DHT22;3077;50.922;6.584;2023-08-30T08:48:28;19.40;99.90
6098;DHT22;3077;50.922;6.584;2023-08-30T08:50:55;19.50;99.90
6098;DHT22;3077;50.922;6.584;2023-08-30T08:53:21;19.50;99.90
6098;DHT22;3077;50.922;6.584;2023-08-30T08:55:48;19.50;99.90
6098;DHT22;3077;50.922;6.584;2023-08-30T08:58:14;19.50;99.90
6098;DHT22;3077;50.922;6.584;2023-08-30T09:00:42;19.40;99.90
6098;DHT22;3077;50.922;6.584;2023-08-30T09:03:08;19.40;99.90
6098;DHT22;3077;50.922;6.584;2023-08-30T09:05:37;19.50;99.90
6098;DHT22;3077;50.922;6.584;2023-08-30T09:08:04;19.50;99.90
6098;DHT22;3077;50.922;6.584;2023-08-30T09:10:32;19.50;99.90
6098;DHT22;3077;50.922;6.584;2023-08-30T09:12:58;19.50;99.90
6098;DHT22;3077;50.922;6.584;2023-08-30T09:15:33;19.40;99.90
6098;DHT22;3077;50.922;6.584;2023-08-30T09:17:59;19.40;99.90
6098;DHT22;3077;50.922;6.584;2023-08-30T09:20:25;19.40;99.90
6098;DHT22;3077;50.922;6.584;2023-08-30T09:22:51;19.40;99.90
6098;DHT22;3077;50.922;6.584;2023-08-30T09:25:24;19.40;99.90
6098;DHT22;3077;50.922;6.584;2023-08-30T09:27:51;19.30;99.90
6098;DHT22;3077;50.922;6.584;2023-08-30T09:30:21;19.40;99.90
6098;DHT22;3077;50.922;6.584;2023-08-30T09:32:47;19.30;99.90
6098;DHT22;3077;50.922;6.584;2023-08-30T09:35:13;19.20;99.90
6098;DHT22;3077;50.922;6.584;2023-08-30T09:37:38;19.20;99.90
6098;DHT22;3077;50.922;6.584;2023-08-30T09:40:05;19.20;99.90
6098;DHT22;3077;50.922;6.584;2023-08-30T09:42:31;19.20;99.90
6098;DHT22;3077;50.922;6.584;2023-08-30T09:44:57;19.20;99.90
6098;DHT22;3077;50.922;6.584;2023-08-30T09:47:24;19.30;99.90
6098;DHT22;3077;50.922;6.584;2023-08-30T09:49:51;19.40;99.90
6098;DHT22;3077;50.922;6.584;2023-08-30T09:52:23;19.40;99.90
6098;DHT22;3077;50.922;6.584;2023-08-30T09:54:49;19.50;99.90
6098;DHT22;3077;50.922;6.584;2023-08-30T09:57:15;19.60;99.90
6098;DHT22;3077;50.922;6.584;2023-08-30T09:59:42;19.70;99.90
6098;DHT22;3077;50.922;6.584;2023-08-30T10:02:09;19.70;99.90
6098;DHT22;3077;50.922;6.584;2023-08-30T10:04:38;19.80;99.90
6098;DHT22;3077;50.922;6.584;2023-08-30T10:07:06;19.90;99.90
6098;DHT22;3077;50.922;6.584;2023-08-30T10:09:32;19.90;99.90
6098;DHT22;3077;50.922;6.584;2023-08-30T10:11:58;19.80;99.90
6098;DHT22;3077;50.922;6.584;2023-08-30T10:14:26;19.70;99.90
6098;DHT22;3077;50.922;6.584;2023-08-30T10:17:02;19.70;99.90
6098;DHT22;3077;50.922;6.584;2023-08-30T10:19:29;19.60;99.90
6098;DHT22;3077;50.922;6.584;2023-08-30T10:24:32;19.30;99.90
6098;DHT22;3077;50.922;6.584;2023-08-30T10:27:02;19.00;99.90
6098;DHT22;3077;50.922;6.584;2023-08-30T10:29:29;18.60;99.90
6098;DHT22;3077;50.922;6.584;2023-08-30T10:32:04;18.20;99.90
6098;DHT22;3077;50.922;6.584;2023-08-30T10:34:35;18.00;99.90
6098;DHT22;3077;50.922;6.584;2023-08-30T10:37:03;17.60;99.90
6098;DHT22;3077;50.922;6.584;2023-08-30T10:39:37;17.00;99.90
6098;DHT22;3077;50.922;6.584;2023-08-30T10:42:11;16.60;99.90
6098;DHT22;3077;50.922;6.584;2023-08-30T10:44:59;16.30;99.90
6098;DHT22;3077;50.922;6.584;2023-08-30T10:47:27;15.90;99.90
6098;DHT22;3077;50.922;6.584;2023-08-30T10:50:14;15.70;99.90
6098;DHT22;3077;50.922;6.584;2023-08-30T10:52:40;15.70;99.90
6098;DHT22;3077;50.922;6.584;2023-08-30T10:55:14;15.60;99.90
6098;DHT22;3077;50.922;6.584;2023-08-30T10:57:45;15.60;99.90
6098;DHT22;3077;50.922;6.584;2023-08-30T11:02:37;15.70;99.90
6098;DHT22;3077;50.922;6.584;2023-08-30T11:05:06;15.70;99.90
6098;DHT22;3077;50.922;6.584;2023-08-30T11:07:32;15.80;99.90
6098;DHT22;3077;50.922;6.584;2023-08-30T11:09:58;15.70;99.90
6098;DHT22;3077;50.922;6.584;2023-08-30T11:12:24;15.70;99.90
6098;DHT22;3077;50.922;6.584;2023-08-30T11:14:52;15.60;99.90
6098;DHT22;3077;50.922;6.584;2023-08-30T11:17:18;15.60;99.90
6098;DHT22;3077;50.922;6.584;2023-08-30T11:19:44;15.60;99.90
6098;DHT22;3077;50.922;6.584;2023-08-30T11:22:10;15.50;99.90
6098;DHT22;3077;50.922;6.584;2023-08-30T11:24:36;15.60;99.90
6098;DHT22;3077;50.922;6.584;2023-08-30T11:27:01;15.60;99.90
6098;DHT22;3077;50.922;6.584;2023-08-30T11:29:27;15.50;99.90
6098;DHT22;3077;50.922;6.584;2023-08-30T11:31:53;15.60;99.90
6098;DHT22;3077;50.922;6.584;2023-08-30T11:34:21;15.60;99.90
6098;DHT22;3077;50.922;6.584;2023-08-30T11:36:48;15.60;99.90
6098;DHT22;3077;50.922;6.584;2023-08-30T11:39:16;15.70;99.90
6098;DHT22;3077;50.922;6.584;2023-08-30T11:41:42;15.80;99.90
6098;DHT22;3077;50.922;6.584;2023-08-30T11:44:08;15.80;99.90
6098;DHT22;3077;50.922;6.584;2023-08-30T11:46:34;15.80;99.90
6098;DHT22;3077;50.922;6.584;2023-08-30T11:48:59;15.80;99.90
6098;DHT22;3077;50.922;6.584;2023-08-30T11:51:26;15.80;99.90
6098;DHT22;3077;50.922;6.584;2023-08-30T11:53:52;15.70;99.90
6098;DHT22;3077;50.922;6.584;2023-08-30T11:56:19;15.80;99.90
6098;DHT22;3077;50.922;6.584;2023-08-30T11:58:45;15.80;99.90
6098;DHT22;3077;50.922;6.584;2023-08-30T12:01:11;15.70;99.90
6098;DHT22;3077;50.922;6.584;2023-08-30T12:03:38;15.70;99.90
6098;DHT22;3077;50.922;6.584;2023-08-30T12:06:09;15.80;99.90
6098;DHT22;3077;50.922;6.584;2023-08-30T12:08:35;15.80;99.90
6098;DHT22;3077;50.922;6.584;2023-08-30T12:11:01;15.70;99.90
6098;DHT22;3077;50.922;6.584;2023-08-30T12:13:29;15.70;99.90
6098;DHT22;3077;50.922;6.584;2023-08-30T12:15:57;15.60;99.90
6098;DHT22;3077;50.922;6.584;2023-08-30T12:18:23;15.60;99.90
6098;DHT22;3077;50.922;6.584;2023-08-30T12:21:00;15.50;99.90
6098;DHT22;3077;50.922;6.584;2023-08-30T12:23:27;15.60;99.90
6098;DHT22;3077;50.922;6.584;2023-08-30T12:26:12;15.60;99.90
6098;DHT22;3077;50.922;6.584;2023-08-30T12:28:39;15.70;99.90
6098;DHT22;3077;50.922;6.584;2023-08-30T12:31:05;15.70;99.90
6098;DHT22;3077;50.922;6.584;2023-08-30T12:33:33;15.70;99.90
6098;DHT22;3077;50.922;6.584;2023-08-30T12:35:59;15.80;99.90
6098;DHT22;3077;50.922;6.584;2023-08-30T12:38:25;15.80;99.90
6098;DHT22;3077;50.922;6.584;2023-08-30T12:40:52;15.80;99.90
6098;DHT22;3077;50.922;6.584;2023-08-30T12:43:19;15.90;99.90
6098;DHT22;3077;50.922;6.584;2023-08-30T12:45:45;15.80;99.90
6098;DHT22;3077;50.922;6.584;2023-08-30T12:48:12;15.80;99.90
6098;DHT22;3077;50.922;6.584;2023-08-30T12:50:41;15.90;99.90
6098;DHT22;3077;50.922;6.584;2023-08-30T12:53:07;15.90;99.90
6098;DHT22;3077;50.922;6.584;2023-08-30T12:55:33;16.20;99.90
6098;DHT22;3077;50.922;6.584;2023-08-30T12:58:06;15.90;99.90
6098;DHT22;3077;50.922;6.584;2023-08-30T13:00:32;15.90;99.90
6098;DHT22;3077;50.922;6.584;2023-08-30T13:02:59;15.90;99.90
6098;DHT22;3077;50.922;6.584;2023-08-30T13:05:25;15.90;99.90
6098;DHT22;3077;50.922;6.584;2023-08-30T13:07:50;15.90;99.90
6098;DHT22;3077;50.922;6.584;2023-08-30T13:10:16;15.90;99.90
6098;DHT22;3077;50.922;6.584;2023-08-30T13:12:42;15.90;99.90
6098;DHT22;3077;50.922;6.584;2023-08-30T13:15:09;15.90;99.90
6098;DHT22;3077;50.922;6.584;2023-08-30T13:17:35;16.00;99.90
6098;DHT22;3077;50.922;6.584;2023-08-30T13:20:00;16.00;99.90
6098;DHT22;3077;50.922;6.584;2023-08-30T13:22:27;16.00;99.90
6098;DHT22;3077;50.922;6.584;2023-08-30T13:24:53;16.00;99.90
6098;DHT22;3077;50.922;6.584;2023-08-30T13:27:19;16.00;99.90
6098;DHT22;3077;50.922;6.584;2023-08-30T13:29:45;16.00;99.90
6098;DHT22;3077;50.922;6.584;2023-08-30T13:32:11;16.00;99.90
6098;DHT22;3077;50.922;6.584;2023-08-30T13:34:37;16.00;99.90
6098;DHT22;3077;50.922;6.584;2023-08-30T13:37:02;16.00;99.90
6098;DHT22;3077;50.922;6.584;2023-08-30T13:39:28;16.00;99.90
6098;DHT22;3077;50.922;6.584;2023-08-30T13:41:54;16.00;99.90
6098;DHT22;3077;50.922;6.584;2023-08-30T13:44:19;16.00;99.90
6098;DHT22;3077;50.922;6.584;2023-08-30T13:46:45;16.00;99.90
6098;DHT22;3077;50.922;6.584;2023-08-30T13:49:14;15.90;99.90
6098;DHT22;3077;50.922;6.584;2023-08-30T13:51:40;15.80;99.90
6098;DHT22;3077;50.922;6.584;2023-08-30T13:54:05;15.90;99.90
6098;DHT22;3077;50.922;6.584;2023-08-30T13:56:31;15.80;99.90
6098;DHT22;3077;50.922;6.584;2023-08-30T13:58:57;15.70;99.90
6098;DHT22;3077;50.922;6.584;2023-08-30T14:01:23;15.70;99.90
6098;DHT22;3077;50.922;6.584;2023-08-30T14:03:49;15.50;99.90
6098;DHT22;3077;50.922;6.584;2023-08-30T14:06:15;15.00;99.90
6098;DHT22;3077;50.922;6.584;2023-08-30T14:08:41;15.20;99.90
6098;DHT22;3077;50.922;6.584;2023-08-30T14:11:06;15.10;99.90
6098;DHT22;3077;50.922;6.584;2023-08-30T14:13:32;15.00;99.90
6098;DHT22;3077;50.922;6.584;2023-08-30T14:16:02;15.00;99.90
6098;DHT22;3077;50.922;6.584;2023-08-30T14:18:31;14.90;99.90
6098;DHT22;3077;50.922;6.584;2023-08-30T14:20:57;14.80;99.90
6098;DHT22;3077;50.922;6.584;2023-08-30T14:23:25;14.90;99.90
6098;DHT22;3077;50.922;6.584;2023-08-30T14:26:01;15.00;99.90
6098;DHT22;3077;50.922;6.584;2023-08-30T14:28:29;15.00;99.90
6098;DHT22;3077;50.922;6.584;2023-08-30T14:30:54;15.10;99.90
6098;DHT22;3077;50.922;6.584;2023-08-30T14:33:20;15.20;99.90
6098;DHT22;3077;50.922;6.584;2023-08-30T14:35:46;15.30;99.90
6098;DHT22;3077;50.922;6.584;2023-08-30T14:38:12;15.40;99.90
6098;DHT22;3077;50.922;6.584;2023-08-30T14:40:37;15.50;99.90
6098;DHT22;3077;50.922;6.584;2023-08-30T14:43:03;15.60;99.90
6098;DHT22;3077;50.922;6.584;2023-08-30T14:45:30;15.60;99.90
6098;DHT22;3077;50.922;6.584;2023-08-30T14:47:56;15.70;99.90
6098;DHT22;3077;50.922;6.584;2023-08-30T14:50:21;15.70;99.90
6098;DHT22;3077;50.922;6.584;2023-08-30T14:52:47;15.90;99.90
6098;DHT22;3077;50.922;6.584;2023-08-30T14:55:12;16.40;99.90
6098;DHT22;3077;50.922;6.584;2023-08-30T14:57:38;16.70;99.90
6098;DHT22;3077;50.922;6.584;2023-08-30T15:00:05;16.70;99.90
6098;DHT22;3077;50.922;6.584;2023-08-30T15:02:31;16.90;99.90
6098;DHT22;3077;50.922;6.584;2023-08-30T15:04:56;17.70;99.90
6098;DHT22;3077;50.922;6.584;2023-08-30T15:07:22;18.20;99.90
6098;DHT22;3077;50.922;6.584;2023-08-30T15:09:48;18.60;99.90
6098;DHT22;3077;50.922;6.584;2023-08-30T15:12:13;19.20;99.90
6098;DHT22;3077;50.922;6.584;2023-08-30T15:14:39;19.80;99.90
6098;DHT22;3077;50.922;6.584;2023-08-30T15:17:07;20.10;99.90
6098;DHT22;3077;50.922;6.584;2023-08-30T15:19:33;20.80;99.90
6098;DHT22;3077;50.922;6.584;2023-08-30T15:21:58;21.60;99.90
6098;DHT22;3077;50.922;6.584;2023-08-30T15:24:24;22.30;99.90
6098;DHT22;3077;50.922;6.584;2023-08-30T15:26:49;22.50;99.90
6098;DHT22;3077;50.922;6.584;2023-08-30T15:29:15;22.50;99.90
6098;DHT22;3077;50.922;6.584;2023-08-30T15:31:40;23.10;99.90
6098;DHT22;3077;50.922;6.584;2023-08-30T15:34:06;23.50;99.90
6098;DHT22;3077;50.922;6.584;2023-08-30T15:36:31;24.00;99.90
6098;DHT22;3077;50.922;6.584;2023-08-30T15:38:57;24.50;99.90
6098;DHT22;3077;50.922;6.584;2023-08-30T15:41:23;25.00;99.90
6098;DHT22;3077;50.922;6.584;2023-08-30T15:43:48;25.40;95.90
6098;DHT22;3077;50.922;6.584;2023-08-30T15:46:14;25.70;91.40
6098;DHT22;3077;50.922;6.584;2023-08-30T15:48:40;25.70;87.10
6098;DHT22;3077;50.922;6.584;2023-08-30T15:51:06;25.90;83.50
6098;DHT22;3077;50.922;6.584;2023-08-30T15:53:32;26.10;81.30
6098;DHT22;3077;50.922;6.584;2023-08-30T15:55:57;26.20;72.50
6098;DHT22;3077;50.922;6.584;2023-08-30T15:58:24;26.20;75.40
6098;DHT22;3077;50.922;6.584;2023-08-30T16:00:49;26.40;72.70
6098;DHT22;3077;50.922;6.584;2023-08-30T16:03:15;26.60;66.90
6098;DHT22;3077;50.922;6.584;2023-08-30T16:05:42;26.70;67.40
6098;DHT22;3077;50.922;6.584;2023-08-30T16:08:09;27.10;62.80
6098;DHT22;3077;50.922;6.584;2023-08-30T16:10:35;27.10;58.90
6098;DHT22;3077;50.922;6.584;2023-08-30T16:13:00;27.00;57.30